This is the latest recevied weather packets stored in our database for station/object K7AC-13. If no packets are shown the sender has not sent any weather packets the latest 10 day(s).
| Time | Temp. | Humidity | Pressure | Rain* | Wind** | Luminosity | Snow |
|---|---|---|---|---|---|---|---|
| 1777780854 | 26.67° C | 21% | 1010.8 hPa | 0 mm | - | - | - |
| 1777779952 | 27.22° C | 20% | 1010.6 hPa | 0 mm | - | - | - |
| 1777778152 | 28.33° C | 18% | 1010.3 hPa | 0 mm | - | - | - |
| 1777774557 | 30.56° C | 17% | 1010 hPa | 0 mm | - | - | - |
| 1777769152 | 32.78° C | 15% | 1010.3 hPa | 0 mm | - | - | - |
| 1777766463 | 32.78° C | 14% | 1010.5 hPa | 0 mm | - | - | - |
| 1777764657 | 33.33° C | 14% | 1010.6 hPa | 0 mm | - | - | - |
| 1777763748 | 34.44° C | 13% | 1010.6 hPa | 0 mm | - | - | - |
| 1777761954 | 33.89° C | 14% | 1011 hPa | 0 mm | - | - | - |
| 1777752950 | 33.33° C | 17% | 1013.3 hPa | 0 mm | - | - | - |
| 1777750253 | 32.22° C | 20% | 1013.9 hPa | 0 mm | - | - | - |
| 1777745752 | 30.56° C | 23% | 1015.2 hPa | 0 mm | - | - | - |
| 1777739455 | 28.33° C | 30% | 1015.3 hPa | 0 mm | - | - | - |
| 1777736753 | 26.67° C | 33% | 1015 hPa | 0 mm | - | - | - |
| 1777731347 | 23.33° C | 40% | 1014.4 hPa | 0 mm | - | - | - |
| 1777729552 | 20° C | 42% | 1013.9 hPa | 0 mm | - | - | - |
| 1777725952 | 17.78° C | 39% | 1013.1 hPa | 0 mm | - | - | - |
| 1777720553 | 18.33° C | 36% | 1012.5 hPa | 0 mm | - | - | - |
| 1777715152 | 19.44° C | 33% | 1012.1 hPa | 0 mm | - | - | - |
| 1777712472 | 20.56° C | 31% | 1012.2 hPa | 0 mm | - | - | - |
| 1777710647 | 20.56° C | 32% | 1012.2 hPa | 0 mm | - | - | - |
| 1777707054 | 19.44° C | 35% | 1012.2 hPa | 0 mm | - | - | - |
| 1777698959 | 23.33° C | 30% | 1011.2 hPa | 0 mm | - | - | - |
| 1777697155 | 23.89° C | 27% | 1011 hPa | 0 mm | - | - | - |
| 1777696255 | 24.44° C | 27% | 1011 hPa | 0 mm | - | - | - |
* Rain latest hour (hover to see other rain measurements)
** Current wind speed in m/s (hover to see current wind gust speed)